Time;durP1;ratioP1;P1;durP2;ratioP2;P2;SDS_P1;SDS_P2;PMS_P1;PMS_P2;Temp;Humidity;BMP_temperature;BMP_pressure;BME280_temperature;BME280_humidity;BME280_pressure;Samples;Min_cycle;Max_cycle;Signal;HPM_P1;HPM_P2
2022/01/06 00:00:11;;;;;;;166.70;142.57;;;;;;;15.95;33.94;93316.16;4978679;28;20049;-65
2022/01/06 00:02:56;;;;;;;166.43;141.93;;;;;;;15.93;34.11;93305.84;4977512;28;20174;-66
2022/01/06 00:05:22;;;;;;;168.27;145.23;;;;;;;15.94;33.94;93304.63;4984915;28;20145;-66
2022/01/06 00:07:48;;;;;;;171.07;147.45;;;;;;;15.96;34.00;93314.97;4994144;28;20212;-65
2022/01/06 00:10:14;;;;;;;166.82;143.10;;;;;;;15.94;33.96;93314.66;4987324;28;20068;-65
2022/01/06 00:13:29;;;;;;;171.75;147.23;;;;;;;15.95;34.01;93308.06;4984323;28;20960;-65
2022/01/06 00:15:37;;;;;;;169.95;144.45;;;;;;;15.96;34.17;93312.25;4963647;28;20305;-66
2022/01/06 00:25:48;;;;;;;171.07;146.23;;;;;;;15.93;34.14;93315.88;4990551;28;20054;-66
2022/01/06 00:28:13;;;;;;;168.13;143.00;;;;;;;15.90;34.20;93314.84;4983521;28;20059;-66
2022/01/06 00:30:39;;;;;;;166.27;141.55;;;;;;;15.93;34.15;93313.16;4991888;28;20110;-65
2022/01/06 00:33:05;;;;;;;170.00;146.57;;;;;;;15.92;34.10;93319.78;4974491;28;20130;-66
2022/01/06 00:35:31;;;;;;;167.98;145.07;;;;;;;15.94;34.07;93323.50;4984912;28;20050;-65
2022/01/06 00:37:57;;;;;;;169.48;145.65;;;;;;;15.93;34.13;93315.88;4982871;28;20221;-66
2022/01/06 00:40:23;;;;;;;168.23;144.20;;;;;;;15.92;34.22;93314.38;4985791;28;20566;-66
2022/01/06 00:42:48;;;;;;;166.75;144.05;;;;;;;15.91;34.15;93310.94;4990498;28;20045;-66
2022/01/06 00:45:14;;;;;;;166.68;142.27;;;;;;;15.92;34.07;93311.69;4986112;28;20046;-65
2022/01/06 00:47:39;;;;;;;166.90;142.13;;;;;;;15.91;34.26;93316.31;4979718;28;20053;-66
2022/01/06 00:50:05;;;;;;;168.05;144.30;;;;;;;15.92;33.98;93315.13;4987116;28;20050;-66
2022/01/06 00:52:31;;;;;;;164.98;141.00;;;;;;;15.91;34.09;93312.88;4989996;28;20057;-65
2022/01/06 00:54:57;;;;;;;169.23;142.32;;;;;;;15.92;34.14;93308.97;4983353;28;20046;-66
2022/01/06 00:57:22;;;;;;;169.85;144.38;;;;;;;15.90;34.27;93314.09;4978776;28;20074;-65
2022/01/06 00:59:48;;;;;;;165.55;139.85;;;;;;;15.90;34.14;93304.03;4978360;28;20481;-66
2022/01/06 01:02:13;;;;;;;167.23;143.02;;;;;;;15.90;33.97;93309.44;4992822;28;20046;-66
2022/01/06 01:04:39;;;;;;;174.00;148.85;;;;;;;15.90;34.26;93306.75;4994371;28;20114;-66
2022/01/06 01:07:05;;;;;;;165.32;141.95;;;;;;;15.90;34.20;93316.78;4978555;28;20054;-65
2022/01/06 01:09:31;;;;;;;169.27;145.13;;;;;;;15.88;34.28;93317.25;4987471;28;20042;-65
2022/01/06 01:12:01;;;;;;;167.57;142.98;;;;;;;15.88;34.14;93317.25;4983180;28;20050;-66
2022/01/06 01:14:30;;;;;;;169.18;142.57;;;;;;;15.88;34.01;93327.28;4974792;28;20057;-66
2022/01/06 01:16:58;;;;;;;170.25;145.50;;;;;;;15.87;34.01;93323.09;4974786;28;20129;-65
2022/01/06 01:19:25;;;;;;;167.80;144.02;;;;;;;15.87;33.92;93326.53;5008769;28;20061;-66
2022/01/06 01:21:52;;;;;;;169.48;145.82;;;;;;;15.87;33.98;93331.19;4978934;28;20051;-66
2022/01/06 01:24:18;;;;;;;167.90;143.00;;;;;;;15.86;34.02;93341.22;4983300;28;20047;-66
2022/01/06 01:26:44;;;;;;;168.23;144.35;;;;;;;15.87;33.85;93336.56;4983424;28;20050;-66
2022/01/06 01:29:14;;;;;;;170.68;145.85;;;;;;;15.87;34.07;93331.91;4983398;28;20633;-65
2022/01/06 01:31:45;;;;;;;167.25;143.82;;;;;;;15.87;34.10;93331.91;4986863;28;20051;-66
2022/01/06 01:34:12;;;;;;;169.70;143.85;;;;;;;15.86;34.05;93333.13;4979967;28;20050;-65
2022/01/06 01:36:38;;;;;;;169.27;144.73;;;;;;;15.86;34.08;93337.78;4987497;28;20057;-66
2022/01/06 01:39:05;;;;;;;172.88;148.68;;;;;;;15.85;34.16;93342.41;4987061;28;20169;-66
2022/01/06 01:41:32;;;;;;;162.73;140.10;;;;;;;15.86;34.08;93343.16;4985094;28;20118;-66
2022/01/06 01:43:58;;;;;;;168.23;144.73;;;;;;;15.84;33.95;93345.56;4988441;28;20092;-65
2022/01/06 01:46:29;;;;;;;169.23;143.68;;;;;;;15.82;34.08;93344.06;4985929;28;20050;-66
2022/01/06 01:49:28;;;;;;;169.73;143.60;;;;;;;15.80;34.12;93349.16;4985790;28;20042;-66
2022/01/06 01:51:44;;;;;;;165.20;139.85;;;;;;;15.80;34.01;93349.16;4992746;28;20046;-66
2022/01/06 01:54:10;;;;;;;168.13;143.45;;;;;;;15.80;33.92;93338.38;4988571;28;20388;-65
2022/01/06 01:56:38;;;;;;;169.65;144.90;;;;;;;15.82;33.98;93346.03;4985710;28;20457;-65
2022/01/06 01:59:03;;;;;;;167.68;141.52;;;;;;;15.82;33.96;93344.06;4995632;28;20045;-66
2022/01/06 02:01:29;;;;;;;170.90;146.88;;;;;;;15.83;34.09;93344.81;4979975;28;20394;-65
2022/01/06 02:03:55;;;;;;;169.57;143.10;;;;;;;15.83;34.00;93342.13;4980812;28;20057;-65
2022/01/06 02:06:20;;;;;;;168.93;143.45;;;;;;;15.82;34.00;93343.31;4982147;28;20581;-65
2022/01/06 02:08:46;;;;;;;168.35;144.38;;;;;;;15.80;33.96;93348.41;4997674;28;20100;-65
2022/01/06 02:11:12;;;;;;;168.05;142.95;;;;;;;15.79;34.12;93347.69;4977783;28;20053;-65
2022/01/06 02:13:46;;;;;;;167.05;142.10;;;;;;;15.78;34.03;93350.81;4990010;28;20413;-66
2022/01/06 02:16:12;;;;;;;172.93;145.85;;;;;;;15.76;34.06;93353.22;4985253;28;20050;-65
2022/01/06 02:18:37;;;;;;;166.93;141.70;;;;;;;15.74;34.18;93359.06;4985748;28;20088;-65
2022/01/06 02:21:02;;;;;;;175.20;148.27;;;;;;;15.74;34.09;93352.94;4992498;28;20056;-65
2022/01/06 02:23:28;;;;;;;169.90;144.25;;;;;;;15.74;34.10;93359.06;4986666;28;20058;-65
2022/01/06 02:25:54;;;;;;;172.35;146.75;;;;;;;15.75;34.14;93357.88;5002185;28;20092;-66
2022/01/06 02:28:22;;;;;;;172.02;146.80;;;;;;;15.74;34.03;93367.16;4988587;28;20053;-66
2022/01/06 02:30:49;;;;;;;173.75;147.20;;;;;;;15.73;33.89;93364.91;4980661;28;20049;-66
2022/01/06 02:33:15;;;;;;;168.23;141.95;;;;;;;15.73;33.91;93362.22;4982347;28;20058;-65
2022/01/06 02:35:41;;;;;;;166.43;141.35;;;;;;;15.73;34.01;93370.31;4984734;28;20041;-66
2022/01/06 02:38:09;;;;;;;175.18;148.32;;;;;;;15.72;33.79;93363.44;4987881;28;20064;-66
2022/01/06 02:40:34;;;;;;;173.00;146.13;;;;;;;15.72;34.04;93366.88;4988073;28;20040;-66
2022/01/06 02:43:02;;;;;;;172.88;146.55;;;;;;;15.71;33.92;93365.38;4992266;28;20042;-66
2022/01/06 02:45:29;;;;;;;169.45;143.57;;;;;;;15.70;33.75;93371.22;4987371;28;20044;-66
2022/01/06 02:47:56;;;;;;;166.30;141.38;;;;;;;15.71;33.91;93367.31;4988005;28;20176;-65
2022/01/06 02:50:23;;;;;;;173.65;147.57;;;;;;;15.71;33.75;93368.06;4982221;28;20046;-66
2022/01/06 02:52:49;;;;;;;166.35;141.05;;;;;;;15.71;34.08;93370.75;4981307;28;20049;-65
2022/01/06 02:55:15;;;;;;;166.65;140.73;;;;;;;15.69;34.10;93372.41;4984539;28;20047;-66
2022/01/06 02:57:42;;;;;;;168.30;143.65;;;;;;;15.71;34.03;93373.47;4987183;28;20093;-65
2022/01/06 03:00:11;;;;;;;168.73;142.10;;;;;;;15.72;33.88;93371.50;4985220;28;20046;-66
2022/01/06 03:02:38;;;;;;;;;;;;;;;15.73;34.11;93375.69;4987253;28;20062;-66
2022/01/06 03:05:04;;;;;;;166.18;137.95;;;;;;;15.73;33.96;93373.00;4986669;28;19922;-66
2022/01/06 03:07:31;;;;;;;169.52;141.95;;;;;;;15.72;33.88;93376.91;4981679;28;20050;-65
2022/01/06 03:09:58;;;;;;;166.88;141.82;;;;;;;15.72;34.01;93376.91;4986573;28;20050;-66
2022/01/06 03:12:33;;;;;;;168.40;143.10;;;;;;;15.71;34.02;93375.41;4990812;28;20422;-65
2022/01/06 03:14:58;;;;;;;170.20;143.38;;;;;;;15.71;33.87;93378.84;4988328;28;20493;-68
2022/01/06 03:17:24;;;;;;;169.18;144.38;;;;;;;15.71;34.07;93383.50;4984898;28;20047;-68
2022/01/06 03:19:49;;;;;;;166.18;141.95;;;;;;;15.71;33.83;93378.84;4991806;28;20949;-70
2022/01/06 03:22:15;;;;;;;169.35;143.73;;;;;;;15.71;34.03;93381.53;4984605;28;20063;-68
2022/01/06 03:24:42;;;;;;;176.82;151.20;;;;;;;15.71;34.03;93391.59;4982694;28;20094;-68
2022/01/06 03:27:07;;;;;;;168.88;144.15;;;;;;;15.70;34.02;93385.44;4984098;28;20046;-68
2022/01/06 03:29:33;;;;;;;166.68;141.13;;;;;;;15.71;33.98;93386.94;4983452;28;20113;-68
2022/01/06 03:31:59;;;;;;;169.63;144.15;;;;;;;15.69;33.98;93394.72;4983091;28;20042;-69
2022/01/06 03:34:30;;;;;;;164.75;139.90;;;;;;;15.68;34.04;93398.63;4986507;28;20694;-68
2022/01/06 03:36:57;;;;;;;166.15;141.43;;;;;;;15.70;34.00;93398.19;4980846;28;20047;-68
2022/01/06 03:39:23;;;;;;;169.98;144.73;;;;;;;15.70;34.35;93400.88;4990126;28;20136;-68
2022/01/06 03:41:48;;;;;;;167.85;142.88;;;;;;;15.70;33.98;93404.31;4982858;28;20514;-69
2022/01/06 03:44:14;;;;;;;171.38;144.88;;;;;;;15.70;34.19;93407.00;4985518;28;20122;-69
2022/01/06 03:46:39;;;;;;;165.85;141.02;;;;;;;15.70;33.91;93407.00;4991078;28;20046;-68
2022/01/06 03:49:05;;;;;;;170.35;145.65;;;;;;;15.71;33.95;93405.06;4990677;28;20045;-69
2022/01/06 03:51:30;;;;;;;165.32;140.20;;;;;;;15.70;34.09;93408.97;4982256;28;20125;-68
2022/01/06 03:53:56;;;;;;;172.80;146.55;;;;;;;15.69;34.06;93410.91;4981162;28;20042;-68
2022/01/06 03:56:22;;;;;;;171.38;145.52;;;;;;;15.68;34.31;93414.81;4989230;28;20049;-69
2022/01/06 03:58:49;;;;;;;168.40;142.38;;;;;;;15.66;34.04;93419.16;4987118;28;20054;-68
2022/01/06 04:01:14;;;;;;;172.13;145.40;;;;;;;15.68;34.07;93422.13;4980753;28;20081;-68
2022/01/06 04:03:40;;;;;;;174.23;147.07;;;;;;;15.69;34.02;93426.31;4992298;28;21025;-68
2022/01/06 04:06:06;;;;;;;167.10;140.57;;;;;;;15.70;33.99;93422.44;4981726;28;20069;-68
2022/01/06 04:08:31;;;;;;;170.63;145.93;;;;;;;15.69;34.04;93415.53;4986168;28;20037;-68
2022/01/06 04:10:57;;;;;;;169.40;144.60;;;;;;;15.67;34.03;93428.72;4985549;28;20125;-70
2022/01/06 04:13:24;;;;;;;171.55;144.95;;;;;;;15.65;33.91;93423.78;4982960;28;20069;-69
2022/01/06 04:15:49;;;;;;;169.35;143.18;;;;;;;15.64;34.04;93424.25;4990538;28;20072;-69
2022/01/06 04:18:15;;;;;;;172.95;145.77;;;;;;;15.65;33.84;93429.19;4983018;28;20114;-70
2022/01/06 04:20:41;;;;;;;165.32;141.25;;;;;;;15.65;33.90;93426.47;4991015;28;20037;-68
2022/01/06 04:23:07;;;;;;;169.13;143.32;;;;;;;15.63;33.76;93428.88;4982920;28;20050;-67
2022/01/06 04:25:32;;;;;;;169.40;143.68;;;;;;;15.61;33.99;93423.19;4993852;28;20133;-69
2022/01/06 04:27:58;;;;;;;169.23;143.55;;;;;;;15.62;33.80;93429.34;4992155;28;20352;-68
2022/01/06 04:30:23;;;;;;;173.15;145.52;;;;;;;15.58;33.82;93445.69;4995813;28;20042;-70
2022/01/06 04:32:49;;;;;;;169.00;143.52;;;;;;;15.60;33.99;93447.94;4985033;28;20465;-68
2022/01/06 04:35:14;;;;;;;171.98;145.98;;;;;;;15.56;33.78;93450.75;4978008;28;20038;-69
2022/01/06 04:37:40;;;;;;;168.77;141.77;;;;;;;15.59;33.88;93449.13;4979125;28;20053;-68
2022/01/06 04:40:07;;;;;;;168.93;143.57;;;;;;;15.60;33.47;93450.63;4987412;28;20050;-68
2022/01/06 04:42:33;;;;;;;170.30;143.50;;;;;;;15.55;33.68;93454.66;4984221;28;20116;-69
2022/01/06 04:44:58;;;;;;;175.10;148.68;;;;;;;15.56;33.79;93455.41;4982757;28;20042;-68
2022/01/06 04:47:24;;;;;;;167.38;141.38;;;;;;;15.55;33.72;93451.94;4984949;28;20138;-68
2022/01/06 04:49:49;;;;;;;171.85;146.23;;;;;;;15.59;33.73;93465.31;4982136;28;20189;-68
2022/01/06 04:52:15;;;;;;;166.63;140.70;;;;;;;15.59;33.87;93465.31;4989812;28;20066;-68
2022/01/06 04:54:41;;;;;;;174.00;147.35;;;;;;;15.59;33.96;93466.06;4980825;28;20054;-69
2022/01/06 04:57:07;;;;;;;169.48;141.38;;;;;;;15.59;33.93;93468.00;4986091;28;20441;-68
2022/01/06 04:59:32;;;;;;;169.73;143.48;;;;;;;15.58;33.76;93469.94;4979743;28;20051;-69
2022/01/06 05:01:57;;;;;;;177.43;149.25;;;;;;;15.58;33.82;93469.94;4975080;28;20177;-67
2022/01/06 05:04:23;;;;;;;176.13;147.57;;;;;;;15.58;33.75;93478.03;4982310;28;20042;-68
2022/01/06 05:06:51;;;;;;;174.38;145.85;;;;;;;15.59;33.82;93473.38;4976695;28;20054;-68
2022/01/06 05:09:17;;;;;;;176.80;148.65;;;;;;;15.60;33.80;93482.97;4999617;28;20104;-68
2022/01/06 05:11:43;;;;;;;170.73;142.77;;;;;;;15.59;33.77;93478.78;4994654;28;20039;-69
2022/01/06 05:14:08;;;;;;;170.35;143.95;;;;;;;15.54;33.79;93480.09;4988171;28;20077;-68
2022/01/06 05:16:34;;;;;;;169.70;142.20;;;;;;;15.55;33.83;93478.91;4985617;28;20050;-68
2022/01/06 05:18:59;;;;;;;179.85;150.40;;;;;;;15.56;33.67;93480.41;4992442;28;20065;-68
2022/01/06 05:21:29;;;;;;;171.55;143.52;;;;;;;15.56;33.65;93476.97;4987538;28;20054;-68
2022/01/06 05:23:55;;;;;;;173.40;145.88;;;;;;;15.56;33.77;93485.78;4990093;28;20513;-69
2022/01/06 05:26:20;;;;;;;173.57;146.55;;;;;;;15.55;33.79;93483.53;4986446;28;20054;-69
2022/01/06 05:28:46;;;;;;;173.93;145.82;;;;;;;15.58;33.81;93483.41;4982497;28;20039;-68
2022/01/06 05:31:11;;;;;;;171.02;142.60;;;;;;;15.59;33.67;93479.53;4991289;28;20125;-68
2022/01/06 05:33:37;;;;;;;171.65;144.13;;;;;;;15.63;33.79;93480.09;4981320;28;20058;-70
2022/01/06 05:36:02;;;;;;;169.68;143.18;;;;;;;15.62;33.66;93480.53;4976844;28;20091;-68
2022/01/06 05:38:28;;;;;;;176.95;147.43;;;;;;;15.63;33.61;93482.03;4972665;28;20134;-68
2022/01/06 05:40:53;;;;;;;172.70;146.55;;;;;;;15.64;33.79;93475.44;4978303;28;20068;-68
2022/01/06 05:43:20;;;;;;;176.85;149.43;;;;;;;15.65;33.60;93472.31;4976635;28;20054;-70
2022/01/06 05:45:47;;;;;;;173.73;147.95;;;;;;;15.66;33.67;93476.50;4980589;28;20184;-68
2022/01/06 05:48:13;;;;;;;166.75;140.93;;;;;;;15.65;33.65;93485.03;4985537;28;20097;-68
2022/01/06 05:50:38;;;;;;;169.90;144.35;;;;;;;15.65;33.77;93485.78;4989913;28;20051;-68
2022/01/06 05:53:04;;;;;;;170.32;142.20;;;;;;;15.66;33.83;93486.53;4981222;28;20486;-68
2022/01/06 05:55:30;;;;;;;175.88;148.75;;;;;;;15.64;33.47;93483.53;4986566;28;22624;-68
2022/01/06 05:57:55;;;;;;;173.25;146.57;;;;;;;15.64;33.48;93497.75;4970900;28;20050;-71
2022/01/06 06:00:21;;;;;;;171.80;144.80;;;;;;;15.65;33.55;93499.25;4982726;28;20085;-68
2022/01/06 06:02:46;;;;;;;169.95;143.65;;;;;;;15.71;33.39;93496.72;4981819;28;20070;-68
2022/01/06 06:05:12;;;;;;;179.30;148.80;;;;;;;15.72;33.42;93504.34;4980698;28;20069;-68
2022/01/06 06:07:37;;;;;;;176.55;150.15;;;;;;;15.74;33.44;93507.34;4973928;28;20061;-67
2022/01/06 06:10:03;;;;;;;169.77;143.30;;;;;;;15.74;33.49;93501.94;4991915;28;20038;-68
2022/01/06 06:12:28;;;;;;;170.30;142.20;;;;;;;15.75;33.56;93505.41;4986165;28;20513;-68
2022/01/06 06:14:54;;;;;;;176.80;148.27;;;;;;;15.75;33.54;93497.31;4980687;28;20042;-69
2022/01/06 06:17:19;;;;;;;174.77;147.23;;;;;;;15.76;33.54;93506.91;4989536;28;20502;-68
2022/01/06 06:19:45;;;;;;;169.60;144.77;;;;;;;15.76;33.22;93509.59;4977228;28;20494;-68
2022/01/06 06:22:10;;;;;;;171.70;146.38;;;;;;;15.77;33.48;93503.00;4984383;28;20050;-70
2022/01/06 06:24:38;;;;;;;173.15;147.10;;;;;;;15.77;33.45;93509.13;4989963;28;20571;-70
2022/01/06 06:27:03;;;;;;;170.48;144.27;;;;;;;15.78;33.40;93499.09;4993199;28;20092;-68
2022/01/06 06:29:29;;;;;;;173.50;145.85;;;;;;;15.80;33.59;93494.75;4985510;28;20042;-68
2022/01/06 06:31:55;;;;;;;167.35;141.63;;;;;;;15.82;33.58;93503.16;4987081;28;20039;-68
2022/01/06 06:34:20;;;;;;;173.40;146.13;;;;;;;15.84;33.71;93507.34;4983561;28;20058;-70
2022/01/06 06:36:46;;;;;;;175.32;148.02;;;;;;;15.84;33.64;93504.63;4992245;28;20458;-69
2022/01/06 06:39:12;;;;;;;167.82;140.15;;;;;;;15.85;33.37;93514.22;4992160;28;20708;-68
2022/01/06 06:41:37;;;;;;;181.45;154.52;;;;;;;15.83;33.69;93511.97;4987896;28;20045;-70
2022/01/06 06:44:03;;;;;;;168.13;142.85;;;;;;;15.81;33.80;93509.75;4988280;28;20039;-68
2022/01/06 06:46:29;;;;;;;173.98;147.75;;;;;;;15.82;33.58;93513.94;4985403;28;20053;-68
2022/01/06 06:48:54;;;;;;;174.27;147.55;;;;;;;15.83;33.66;93509.28;4978031;28;20069;-68
2022/01/06 06:51:20;;;;;;;174.18;148.00;;;;;;;15.84;33.69;93521.56;4987076;28;20050;-68
2022/01/06 06:53:45;;;;;;;171.73;145.27;;;;;;;15.84;33.72;93510.03;4984873;28;20113;-70
2022/01/06 06:56:11;;;;;;;176.35;149.82;;;;;;;15.83;33.67;93522.78;4980274;28;20481;-70
2022/01/06 06:58:36;;;;;;;173.02;145.98;;;;;;;15.84;33.54;93520.81;4982875;28;20050;-68
2022/01/06 07:01:02;;;;;;;172.85;146.10;;;;;;;15.82;33.43;93523.97;4983349;28;20606;-68
2022/01/06 07:03:27;;;;;;;174.25;146.75;;;;;;;15.81;33.46;93531.31;4984366;28;20371;-68
2022/01/06 07:05:53;;;;;;;178.98;152.43;;;;;;;15.82;33.59;93532.81;4980893;28;20467;-71
2022/01/06 07:08:19;;;;;;;174.52;148.70;;;;;;;15.81;33.66;93531.31;4983004;28;20066;-68
2022/01/06 07:10:45;;;;;;;173.93;147.63;;;;;;;15.80;33.61;93537.91;4983521;28;20399;-68
2022/01/06 07:13:11;;;;;;;169.30;143.63;;;;;;;15.78;33.65;93543.00;4983017;28;20054;-69
2022/01/06 07:15:41;;;;;;;171.27;146.32;;;;;;;15.78;33.68;93542.25;4989714;28;20524;-70
2022/01/06 07:18:07;;;;;;;173.82;146.82;;;;;;;15.78;33.39;93547.63;4976465;28;20074;-68
2022/01/06 07:20:32;;;;;;;171.60;146.65;;;;;;;15.78;33.52;93553.03;4986788;28;20034;-69
2022/01/06 07:22:58;;;;;;;171.82;145.30;;;;;;;15.75;33.36;93556.63;4978701;28;20038;-68
2022/01/06 07:25:24;;;;;;;165.55;140.45;;;;;;;15.73;33.54;93559.75;4993437;28;20046;-69
2022/01/06 07:27:49;;;;;;;180.60;151.90;;;;;;;15.76;33.54;93558.13;4986727;28;20050;-70
2022/01/06 07:30:15;;;;;;;174.55;147.25;;;;;;;15.77;33.41;93559.63;4987919;28;20062;-68
2022/01/06 07:32:42;;;;;;;167.90;141.82;;;;;;;15.79;33.39;93552.56;4988302;28;20057;-68
2022/01/06 07:35:08;;;;;;;175.43;148.23;;;;;;;15.78;33.45;93553.78;4986601;28;20058;-69
2022/01/06 07:37:34;;;;;;;172.95;147.82;;;;;;;15.79;33.45;93560.66;4983458;28;20510;-70
2022/01/06 07:39:59;;;;;;;171.82;144.93;;;;;;;15.79;33.51;93555.28;4983179;28;20065;-68
2022/01/06 07:42:25;;;;;;;170.98;145.52;;;;;;;15.79;33.36;93560.66;4988046;28;20558;-68
2022/01/06 07:44:50;;;;;;;177.23;150.98;;;;;;;15.79;33.53;93560.66;4984123;28;20107;-73
2022/01/06 07:47:16;;;;;;;171.65;147.60;;;;;;;15.78;33.53;93561.88;4978499;28;20411;-68
2022/01/06 07:49:41;;;;;;;170.38;145.57;;;;;;;15.78;33.40;93569.19;4973648;28;20060;-69
2022/01/06 07:52:07;;;;;;;172.35;145.73;;;;;;;15.77;33.59;93576.53;4977584;28;20081;-69
2022/01/06 07:54:33;;;;;;;170.18;144.13;;;;;;;15.76;33.50;93577.75;4981246;28;20057;-69
2022/01/06 07:56:58;;;;;;;171.68;144.43;;;;;;;15.76;33.45;93583.13;4981529;28;20509;-68
2022/01/06 07:59:24;;;;;;;171.40;144.60;;;;;;;15.75;33.55;93589.72;4984648;28;20038;-68
2022/01/06 08:01:49;;;;;;;170.13;144.70;;;;;;;15.77;33.42;93586.56;4982489;28;20056;-68
2022/01/06 08:04:14;;;;;;;168.27;143.50;;;;;;;15.75;33.42;93597.06;4986444;28;20054;-68
2022/01/06 08:06:40;;;;;;;170.45;144.02;;;;;;;15.76;33.42;93593.16;4987281;28;20043;-71
2022/01/06 08:09:06;;;;;;;170.35;145.30;;;;;;;15.77;33.49;93587.31;4976133;28;20563;-68
2022/01/06 08:11:31;;;;;;;168.52;141.48;;;;;;;15.78;33.42;93588.06;4990710;28;20049;-70
2022/01/06 08:13:57;;;;;;;169.60;144.52;;;;;;;15.78;33.42;93601.56;4986537;28;20398;-69
2022/01/06 08:16:23;;;;;;;172.95;146.40;;;;;;;15.76;33.42;93599.31;4978379;28;20038;-69
2022/01/06 08:18:49;;;;;;;174.82;149.55;;;;;;;15.76;33.48;93601.25;4981116;28;20052;-70
2022/01/06 08:21:14;;;;;;;176.90;149.35;;;;;;;15.75;33.53;93610.53;4978327;28;20525;-66
2022/01/06 08:23:40;;;;;;;172.13;145.43;;;;;;;15.74;33.57;93611.75;4978880;28;20046;-66
2022/01/06 08:26:06;;;;;;;170.30;145.55;;;;;;;15.75;33.35;93607.84;4974683;28;20466;-68
2022/01/06 08:28:31;;;;;;;171.18;144.65;;;;;;;15.74;33.34;93615.19;4976910;28;20038;-67
2022/01/06 08:30:57;;;;;;;171.45;145.85;;;;;;;15.74;33.47;93625.22;4986755;28;20513;-66
2022/01/06 08:33:23;;;;;;;168.68;144.20;;;;;;;15.72;33.41;93624.91;4987882;28;20116;-68
2022/01/06 08:35:49;;;;;;;179.05;152.25;;;;;;;15.70;33.45;93630.00;4984996;28;20516;-67
2022/01/06 08:38:14;;;;;;;172.75;147.20;;;;;;;15.71;33.57;93631.50;4988390;28;20073;-68
2022/01/06 08:40:40;;;;;;;168.20;143.02;;;;;;;15.70;33.24;93638.09;4982528;28;20113;-68
2022/01/06 08:43:06;;;;;;;172.80;146.18;;;;;;;15.64;33.36;93647.97;4984459;28;20054;-71
2022/01/06 08:45:32;;;;;;;172.43;147.88;;;;;;;15.62;33.53;93642.28;4988144;28;20061;-68
2022/01/06 08:47:58;;;;;;;171.80;146.38;;;;;;;15.62;33.48;93655.75;4994910;28;20049;-71
2022/01/06 08:50:24;;;;;;;174.25;148.10;;;;;;;15.65;33.55;93652.16;5004814;28;20152;-70
2022/01/06 08:52:51;;;;;;;170.38;144.63;;;;;;;15.66;33.41;93662.50;4987190;28;20477;-70
2022/01/06 08:55:16;;;;;;;170.73;144.70;;;;;;;15.69;33.43;93660.84;4986638;28;20049;-70
2022/01/06 08:57:42;;;;;;;173.93;148.00;;;;;;;15.68;33.24;93654.72;4986662;28;20054;-66
2022/01/06 09:00:10;;;;;;;179.48;151.38;;;;;;;15.72;33.24;93660.72;4986740;28;20066;-66
2022/01/06 09:02:35;;;;;;;194.77;163.98;;;;;;;15.74;33.25;93660.25;4948353;28;20114;-67
2022/01/06 09:05:05;;;;;;;187.45;159.10;;;;;;;15.76;33.36;93660.56;4970714;28;20043;-66
2022/01/06 09:07:34;;;;;;;198.98;170.35;;;;;;;15.78;33.41;93650.84;4961792;28;20051;-67
2022/01/06 09:10:00;;;;;;;190.10;160.73;;;;;;;15.77;33.45;93654.72;4962627;28;20120;-66
2022/01/06 09:12:27;;;;;;;188.95;158.70;;;;;;;15.75;33.29;93662.50;4963770;28;20058;-66
2022/01/06 09:14:53;;;;;;;198.20;166.90;;;;;;;15.74;33.31;93660.25;4965725;28;20118;-67
2022/01/06 09:17:18;;;;;;;191.90;162.10;;;;;;;15.75;33.42;93659.06;4964886;28;20050;-66
2022/01/06 09:19:44;;;;;;;188.18;158.63;;;;;;;15.74;33.46;93660.25;4966925;28;20046;-66
2022/01/06 09:22:10;;;;;;;185.95;158.80;;;;;;;15.75;33.41;93659.81;4967617;28;20046;-67
2022/01/06 09:24:35;;;;;;;189.32;159.35;;;;;;;15.75;33.31;93664.47;4967474;28;20060;-67
2022/01/06 09:27:01;;;;;;;188.73;159.82;;;;;;;15.70;33.37;93662.34;4966433;28;20136;-66
2022/01/06 09:29:26;;;;;;;188.60;160.32;;;;;;;15.72;33.45;93668.03;4967292;28;20101;-66
2022/01/06 09:31:52;;;;;;;188.88;159.32;;;;;;;15.74;33.46;93673.75;4965373;28;20160;-66
2022/01/06 09:34:18;;;;;;;190.25;160.48;;;;;;;15.69;33.32;93667.00;4967892;28;20068;-67
2022/01/06 09:36:44;;;;;;;188.75;156.40;;;;;;;15.65;33.31;93666.38;4967663;28;20042;-66
2022/01/06 09:39:12;;;;;;;187.35;158.00;;;;;;;15.67;33.39;93676.72;4970367;28;20054;-68
2022/01/06 09:41:37;;;;;;;186.47;156.53;;;;;;;15.69;33.27;93671.63;4970151;28;20065;-66
2022/01/06 09:44:04;;;;;;;188.00;158.38;;;;;;;15.67;33.26;93677.47;4968265;28;20422;-66
2022/01/06 09:46:30;;;;;;;193.05;162.93;;;;;;;15.71;33.21;93675.38;4969388;28;20090;-66
2022/01/06 09:48:59;;;;;;;187.68;158.35;;;;;;;15.74;33.47;93685.28;4982363;28;20061;-67
2022/01/06 09:51:30;;;;;;;179.73;152.43;;;;;;;15.75;33.28;93675.25;4967395;28;20051;-66
2022/01/06 09:53:59;;;;;;;193.30;162.75;;;;;;;15.74;33.30;93677.19;4967083;28;20142;-66
2022/01/06 09:56:26;;;;;;;;;;;;;;;15.76;33.39;93682.13;4966057;28;20074;-66
2022/01/06 09:58:53;;;;;;;191.57;157.50;;;;;;;15.76;33.29;93687.53;4967157;28;19937;-66
2022/01/06 10:01:19;;;;;;;185.70;157.32;;;;;;;15.76;33.30;93685.59;4983481;28;20474;-66
2022/01/06 10:03:48;;;;;;;196.93;165.30;;;;;;;15.71;33.42;93688.88;4967983;28;20120;-66
2022/01/06 10:06:15;;;;;;;180.05;151.85;;;;;;;15.65;33.28;93681.81;4966532;28;20092;-66
2022/01/06 10:08:42;;;;;;;188.15;158.40;;;;;;;15.66;33.38;93686.75;4965952;28;20565;-67
2022/01/06 10:11:12;;;;;;;199.93;168.30;;;;;;;15.67;33.39;93690.19;4961812;28;20116;-67
2022/01/06 10:13:39;;;;;;;204.38;174.07;;;;;;;15.70;33.36;93698.16;4963513;28;20039;-66
2022/01/06 10:16:17;;;;;;;191.05;161.38;;;;;;;15.72;33.32;93697.69;4966271;28;20503;-70
2022/01/06 10:18:54;;;;;;;179.05;151.35;;;;;;;15.73;33.35;93696.50;4963389;28;20569;-67
2022/01/06 10:21:20;;;;;;;190.93;160.90;;;;;;;15.73;33.30;93701.91;4964344;28;20117;-67
2022/01/06 10:24:01;;;;;;;182.48;153.85;;;;;;;15.73;33.21;93701.91;4967195;28;20077;-68
2022/01/06 10:26:26;;;;;;;179.68;151.80;;;;;;;15.76;33.11;93711.78;4964854;28;20042;-66
2022/01/06 10:28:52;;;;;;;186.85;157.93;;;;;;;15.76;33.28;93709.09;4965628;28;20046;-67
2022/01/06 10:31:26;;;;;;;190.15;160.35;;;;;;;15.77;33.42;93710.59;4964804;28;20050;-67
2022/01/06 10:33:52;;;;;;;181.68;153.30;;;;;;;15.77;33.26;93705.19;4956630;28;20120;-66
2022/01/06 10:36:31;;;;;;;187.43;157.57;;;;;;;15.77;33.42;93705.19;4965318;28;21314;-66
2022/01/06 10:38:59;;;;;;;184.32;155.27;;;;;;;15.77;33.46;93710.59;4966846;28;20135;-66
2022/01/06 10:41:27;;;;;;;191.02;160.65;;;;;;;15.78;33.40;93712.09;4966107;28;20057;-66
2022/01/06 10:43:59;;;;;;;187.63;159.73;;;;;;;15.74;33.37;93708.78;4963559;28;20114;-65
2022/01/06 10:46:37;;;;;;;188.80;160.98;;;;;;;15.68;33.36;93711.31;4969500;28;20216;-65
2022/01/06 10:49:14;;;;;;;183.90;154.65;;;;;;;15.64;33.37;93716.09;4969204;28;20057;-68
2022/01/06 10:51:49;;;;;;;188.45;158.50;;;;;;;15.65;33.37;93714.91;4969769;28;20042;-67
2022/01/06 10:54:23;;;;;;;193.27;162.68;;;;;;;15.70;33.30;93713.56;4965640;28;20048;-66
2022/01/06 10:56:58;;;;;;;179.73;151.23;;;;;;;15.74;33.10;93716.88;4963789;28;22136;-66
2022/01/06 10:59:26;;;;;;;192.13;161.93;;;;;;;15.76;33.46;93717.19;4969686;28;20111;-66
2022/01/06 11:01:52;;;;;;;190.65;161.52;;;;;;;15.75;33.24;93713.75;4964780;28;20125;-64
2022/01/06 11:04:17;;;;;;;193.98;163.43;;;;;;;15.75;33.51;93713.75;4964563;28;20050;-64
2022/01/06 11:06:43;;;;;;;189.25;161.68;;;;;;;15.73;33.37;93713.44;4959809;28;20054;-64